Time;durP1;ratioP1;P1;durP2;ratioP2;P2;SDS_P1;SDS_P2;PMS_P1;PMS_P2;Temp;Humidity;BMP_temperature;BMP_pressure;BME280_temperature;BME280_humidity;BME280_pressure;Samples;Min_cycle;Max_cycle;Signal;HPM_P1;HPM_P2
2022/05/29 00:02:26;;;;;;;0.35;0.35;;;14.70;99.90;;;;;;5070237;28;20239;-77
2022/05/29 00:04:59;;;;;;;0.40;0.40;;;14.80;99.90;;;;;;5071822;28;20243;-75
2022/05/29 00:07:30;;;;;;;0.40;0.40;;;14.90;99.90;;;;;;5068724;28;20231;-76
2022/05/29 00:10:00;;;;;;;0.40;0.40;;;15.00;99.90;;;;;;5071265;28;20284;-76
2022/05/29 00:12:31;;;;;;;0.30;0.30;;;15.00;99.90;;;;;;5073330;28;20196;-75
2022/05/29 00:15:02;;;;;;;0.45;0.32;;;15.10;99.90;;;;;;5069711;28;20208;-76
2022/05/29 00:17:33;;;;;;;0.30;0.30;;;15.20;99.90;;;;;;5073647;28;20237;-77
2022/05/29 00:20:06;;;;;;;0.55;0.50;;;15.30;99.90;;;;;;5065812;28;20193;-77
2022/05/29 00:22:36;;;;;;;0.47;0.30;;;15.40;99.90;;;;;;5073092;28;20585;-77
2022/05/29 00:25:12;;;;;;;2.33;0.47;;;15.50;99.90;;;;;;5064430;28;20242;-77
2022/05/29 00:27:42;;;;;;;0.40;0.40;;;15.60;99.90;;;;;;5071731;28;20215;-77
2022/05/29 00:30:17;;;;;;;0.30;0.30;;;15.60;99.90;;;;;;5069925;28;20279;-78
2022/05/29 00:32:48;;;;;;;0.25;0.25;;;15.70;99.90;;;;;;5070922;28;20223;-76
2022/05/29 00:35:21;;;;;;;0.43;0.40;;;15.80;99.90;;;;;;5071646;28;20193;-78
2022/05/29 00:37:53;;;;;;;1.92;0.65;;;15.90;99.90;;;;;;5069340;28;20640;-77
2022/05/29 00:40:36;;;;;;;1.25;0.30;;;15.90;99.90;;;;;;5071435;28;20565;-76
2022/05/29 00:43:06;;;;;;;0.30;0.30;;;16.00;99.90;;;;;;5072705;28;20201;-76
2022/05/29 00:45:45;;;;;;;1.85;0.40;;;16.10;99.90;;;;;;5071936;28;20197;-78
2022/05/29 00:48:18;;;;;;;0.35;0.35;;;16.10;99.90;;;;;;5072075;28;20197;-78
2022/05/29 00:50:52;;;;;;;39.72;22.92;;;16.10;99.90;;;;;;5072538;28;20216;-79
2022/05/29 00:53:24;;;;;;;34.55;19.77;;;16.20;99.90;;;;;;5073120;28;20181;-77
2022/05/29 00:55:58;;;;;;;44.22;26.85;;;16.30;99.90;;;;;;5067744;28;20842;-78
2022/05/29 00:58:29;;;;;;;17.33;9.45;;;16.40;99.90;;;;;;5071084;28;20212;-78
2022/05/29 01:01:01;;;;;;;6.07;3.65;;;16.40;99.90;;;;;;5069469;28;20201;-78
2022/05/29 01:03:31;;;;;;;3.15;1.67;;;16.50;99.90;;;;;;5072415;28;20189;-76
2022/05/29 01:06:04;;;;;;;1.10;0.80;;;16.50;99.90;;;;;;5071581;28;20242;-77
2022/05/29 01:08:38;;;;;;;1.27;0.93;;;16.50;99.90;;;;;;5070071;28;20196;-77
2022/05/29 01:11:23;;;;;;;1.15;0.60;;;16.50;99.90;;;;;;5070708;28;20197;-78
2022/05/29 01:14:03;;;;;;;0.30;0.30;;;16.60;99.90;;;;;;5069938;28;20227;-76
2022/05/29 01:16:43;;;;;;;0.60;0.40;;;16.60;99.90;;;;;;5065205;28;20204;-78
2022/05/29 01:19:39;;;;;;;0.22;0.20;;;16.70;99.90;;;;;;5068987;28;20577;-78
2022/05/29 01:22:42;;;;;;;0.20;0.20;;;16.70;99.90;;;;;;5071708;28;20650;-78
2022/05/29 01:25:55;;;;;;;0.40;0.30;;;16.80;99.90;;;;;;5071083;28;20192;-77
2022/05/29 01:28:49;;;;;;;0.40;0.40;;;16.80;99.90;;;;;;5070174;28;20257;-77
2022/05/29 01:31:31;;;;;;;0.80;0.30;;;16.90;99.90;;;;;;5063680;28;20197;-76
2022/05/29 01:34:09;;;;;;;0.20;0.20;;;16.80;99.90;;;;;;5070336;28;20284;-76
2022/05/29 01:36:49;;;;;;;0.40;0.20;;;16.80;99.90;;;;;;5072126;28;20246;-77
2022/05/29 01:39:25;;;;;;;0.57;0.30;;;16.80;99.90;;;;;;5065034;28;20227;-77
2022/05/29 01:42:00;;;;;;;0.40;0.20;;;16.80;99.90;;;;;;5069503;28;20558;-77
2022/05/29 01:44:39;;;;;;;0.30;0.30;;;16.90;99.90;;;;;;5069210;28;20249;-76
2022/05/29 01:47:14;;;;;;;0.20;0.20;;;16.90;99.90;;;;;;5066507;28;20201;-78
2022/05/29 01:49:51;;;;;;;0.13;0.13;;;16.90;99.90;;;;;;5068418;28;20197;-77
2022/05/29 01:52:27;;;;;;;1.25;0.30;;;16.90;99.90;;;;;;5070433;28;20201;-78
2022/05/29 01:55:01;;;;;;;1.10;0.40;;;17.00;99.90;;;;;;5070301;28;20671;-79
2022/05/29 01:57:36;;;;;;;0.30;0.30;;;17.00;99.90;;;;;;5069945;28;20278;-77
2022/05/29 02:00:14;;;;;;;0.35;0.35;;;17.10;99.90;;;;;;5067852;28;20223;-76
2022/05/29 02:02:51;;;;;;;0.65;0.30;;;17.20;99.90;;;;;;5070356;28;20192;-77
2022/05/29 02:05:26;;;;;;;1.05;0.20;;;17.10;99.90;;;;;;5069731;28;20261;-75
2022/05/29 02:08:03;;;;;;;0.20;0.20;;;17.10;99.90;;;;;;5066733;28;20204;-77
2022/05/29 02:10:39;;;;;;;0.40;0.40;;;17.10;99.90;;;;;;5069464;28;20192;-78
2022/05/29 02:13:14;;;;;;;0.85;0.40;;;17.20;99.90;;;;;;5069799;28;20283;-77
2022/05/29 02:15:52;;;;;;;0.28;0.28;;;17.10;99.90;;;;;;5070553;28;20197;-76
2022/05/29 02:18:29;;;;;;;0.70;0.38;;;17.00;99.90;;;;;;5069510;28;20293;-76
2022/05/29 02:21:09;;;;;;;0.30;0.30;;;17.10;99.90;;;;;;5070108;28;20333;-75
2022/05/29 02:23:44;;;;;;;0.95;0.40;;;17.00;99.90;;;;;;5068752;28;20257;-77
2022/05/29 02:26:19;;;;;;;0.73;0.47;;;17.00;99.90;;;;;;5070964;28;20770;-76
2022/05/29 02:28:53;;;;;;;0.50;0.40;;;17.10;99.90;;;;;;5067081;28;20196;-76
2022/05/29 02:31:34;;;;;;;0.30;0.30;;;17.10;99.90;;;;;;5063873;28;20204;-77
2022/05/29 02:34:11;;;;;;;0.52;0.40;;;17.00;99.90;;;;;;5066373;28;20193;-77
2022/05/29 02:36:51;;;;;;;0.40;0.40;;;17.00;99.90;;;;;;5069525;28;20196;-78
2022/05/29 02:39:43;;;;;;;0.35;0.32;;;17.00;99.90;;;;;;5067955;28;20228;-76
2022/05/29 02:42:23;;;;;;;0.40;0.40;;;17.10;99.90;;;;;;5069450;28;20208;-76
2022/05/29 02:45:05;;;;;;;0.25;0.20;;;17.20;99.90;;;;;;5069002;28;20275;-76
2022/05/29 02:47:47;;;;;;;0.22;0.22;;;17.10;99.90;;;;;;5067436;28;20201;-77
2022/05/29 02:50:42;;;;;;;0.43;0.25;;;17.20;99.90;;;;;;5071639;28;20190;-77
2022/05/29 02:53:15;;;;;;;0.50;0.28;;;17.30;99.90;;;;;;5071567;28;20319;-76
2022/05/29 02:55:47;;;;;;;0.25;0.25;;;17.40;99.90;;;;;;5072265;28;20258;-76
2022/05/29 02:58:21;;;;;;;0.30;0.20;;;17.40;99.90;;;;;;5074675;28;20224;-79
2022/05/29 03:01:07;;;;;;;0.77;0.40;;;17.40;99.90;;;;;;5075037;28;20193;-75
2022/05/29 03:04:02;;;;;;;0.20;0.20;;;17.40;99.90;;;;;;5075182;28;20264;-77
2022/05/29 03:06:52;;;;;;;0.30;0.30;;;17.40;99.90;;;;;;5069593;28;20694;-76
2022/05/29 03:09:53;;;;;;;0.60;0.25;;;17.40;99.90;;;;;;5073576;28;20201;-77
2022/05/29 03:12:40;;;;;;;0.32;0.25;;;17.30;99.90;;;;;;5068362;28;20254;-78
2022/05/29 03:15:20;;;;;;;0.32;0.32;;;17.30;99.90;;;;;;5072409;28;20197;-76
2022/05/29 03:18:02;;;;;;;0.40;0.28;;;17.30;99.90;;;;;;5070104;28;20232;-76
2022/05/29 03:20:44;;;;;;;1.10;0.30;;;17.30;99.90;;;;;;5070623;28;20201;-77
2022/05/29 03:23:25;;;;;;;0.65;0.30;;;17.20;99.90;;;;;;5072523;28;20192;-77
2022/05/29 03:25:58;;;;;;;0.20;0.20;;;17.30;99.90;;;;;;5071715;28;20608;-77
2022/05/29 03:28:41;;;;;;;1.15;0.30;;;17.30;99.90;;;;;;5069233;28;20208;-76
2022/05/29 03:31:15;;;;;;;0.90;0.40;;;17.30;99.90;;;;;;5069977;28;20200;-76
2022/05/29 03:33:49;;;;;;;0.30;0.30;;;17.40;99.90;;;;;;5069759;28;20203;-75
2022/05/29 03:36:23;;;;;;;0.20;0.20;;;17.40;99.90;;;;;;5065718;28;20242;-76
2022/05/29 03:38:54;;;;;;;0.52;0.30;;;17.30;99.90;;;;;;5072842;28;20215;-76
2022/05/29 03:41:30;;;;;;;0.40;0.30;;;17.30;99.90;;;;;;5073359;28;20188;-78
2022/05/29 03:44:00;;;;;;;0.65;0.30;;;17.30;99.90;;;;;;5074655;28;20196;-75
2022/05/29 03:46:31;;;;;;;0.60;0.40;;;17.30;99.90;;;;;;5075108;28;20185;-76
2022/05/29 03:49:02;;;;;;;0.17;0.17;;;17.20;99.90;;;;;;5075147;28;20250;-75
2022/05/29 03:51:35;;;;;;;2.50;0.30;;;17.20;99.90;;;;;;5067723;28;20193;-77
2022/05/29 03:54:05;;;;;;;0.75;0.30;;;17.30;99.90;;;;;;5074684;28;20193;-75
2022/05/29 03:56:36;;;;;;;0.80;0.35;;;17.30;99.90;;;;;;5067652;28;20645;-77
2022/05/29 03:59:07;;;;;;;0.30;0.30;;;17.30;99.90;;;;;;5075031;28;20217;-77
2022/05/29 04:01:39;;;;;;;0.52;0.52;;;17.20;99.90;;;;;;5067062;28;20185;-78
2022/05/29 04:04:09;;;;;;;0.40;0.40;;;17.20;99.90;;;;;;5074866;28;20242;-75
2022/05/29 04:06:42;;;;;;;0.20;0.20;;;17.30;99.90;;;;;;5074343;28;20272;-76
2022/05/29 04:12:09;;;;;;;0.95;0.40;;;17.20;99.90;;;;;;5069212;28;20667;-77
2022/05/29 04:14:41;;;;;;;0.28;0.28;;;17.30;99.90;;;;;;5074425;28;20272;-75
2022/05/29 04:17:15;;;;;;;0.28;0.28;;;17.30;99.90;;;;;;5074710;28;20288;-78
2022/05/29 04:19:46;;;;;;;0.25;0.25;;;17.30;99.90;;;;;;5066544;28;20327;-76
2022/05/29 04:22:21;;;;;;;0.35;0.30;;;17.30;99.90;;;;;;5073488;28;20307;-77
2022/05/29 04:24:51;;;;;;;0.20;0.20;;;17.30;99.90;;;;;;5074385;28;20200;-76
2022/05/29 04:27:22;;;;;;;0.25;0.20;;;17.20;99.90;;;;;;5074359;28;20198;-77
2022/05/29 04:29:52;;;;;;;0.20;0.20;;;17.20;99.90;;;;;;5074526;28;20602;-77
2022/05/29 04:35:10;;;;;;;0.70;0.20;;;17.20;99.90;;;;;;5074348;28;20196;-75
2022/05/29 04:37:43;;;;;;;0.47;0.45;;;17.20;99.90;;;;;;5073824;28;20193;-78
2022/05/29 04:40:14;;;;;;;0.30;0.30;;;17.20;99.90;;;;;;5073940;28;20216;-73
2022/05/29 04:42:45;;;;;;;0.20;0.20;;;17.30;99.90;;;;;;5073826;28;20698;-76
2022/05/29 04:45:15;;;;;;;0.20;0.20;;;17.20;99.90;;;;;;5074090;28;20181;-77
2022/05/29 04:47:46;;;;;;;0.47;0.22;;;17.20;99.90;;;;;;5074034;28;20185;-76
2022/05/29 04:50:17;;;;;;;0.40;0.30;;;17.10;99.90;;;;;;5073830;28;20189;-77
2022/05/29 04:52:50;;;;;;;0.50;0.40;;;17.10;99.90;;;;;;5073528;28;20564;-76
2022/05/29 04:55:21;;;;;;;0.30;0.28;;;17.10;99.90;;;;;;5073468;28;20264;-76
2022/05/29 04:57:52;;;;;;;0.38;0.30;;;17.10;99.90;;;;;;5073683;28;20196;-78
2022/05/29 05:00:23;;;;;;;0.25;0.25;;;17.10;99.90;;;;;;5073662;28;20200;-77
2022/05/29 05:02:54;;;;;;;0.30;0.30;;;17.00;99.90;;;;;;5073704;28;20189;-78
2022/05/29 05:05:24;;;;;;;0.28;0.22;;;17.00;99.90;;;;;;5073661;28;20189;-77
2022/05/29 05:07:57;;;;;;;0.57;0.40;;;17.00;99.90;;;;;;5073192;28;20238;-77
2022/05/29 05:10:28;;;;;;;0.95;0.30;;;17.00;99.90;;;;;;5073659;28;20226;-78
2022/05/29 05:12:59;;;;;;;0.35;0.35;;;17.00;99.90;;;;;;5073570;28;20530;-76
2022/05/29 05:15:29;;;;;;;0.50;0.40;;;17.10;99.90;;;;;;5073164;28;20185;-78
2022/05/29 05:18:00;;;;;;;0.40;0.40;;;17.00;99.90;;;;;;5069409;28;20236;-77
2022/05/29 05:20:32;;;;;;;0.20;0.20;;;17.00;99.90;;;;;;5066027;28;20246;-77
2022/05/29 05:23:05;;;;;;;0.43;0.43;;;17.00;99.90;;;;;;5071353;28;20197;-77
2022/05/29 05:25:35;;;;;;;0.40;0.40;;;16.90;99.90;;;;;;5073386;28;20235;-76
2022/05/29 05:28:06;;;;;;;0.60;0.50;;;16.90;99.90;;;;;;5072817;28;20189;-77
2022/05/29 05:30:37;;;;;;;0.40;0.40;;;16.90;99.90;;;;;;5073365;28;20182;-77
2022/05/29 05:33:07;;;;;;;0.60;0.40;;;16.80;99.90;;;;;;5072541;28;20547;-77
2022/05/29 05:35:38;;;;;;;0.38;0.30;;;16.80;99.90;;;;;;5072351;28;20629;-75
2022/05/29 05:38:12;;;;;;;1.10;0.50;;;16.70;99.90;;;;;;5072490;28;20189;-74
2022/05/29 05:40:42;;;;;;;0.50;0.40;;;16.70;99.90;;;;;;5072066;28;20185;-75
2022/05/29 05:43:13;;;;;;;0.40;0.40;;;16.70;99.90;;;;;;5071651;28;20200;-77
2022/05/29 05:45:44;;;;;;;0.55;0.55;;;16.70;99.90;;;;;;5073142;28;20597;-77
2022/05/29 05:48:15;;;;;;;1.00;0.70;;;16.60;99.90;;;;;;5072795;28;20196;-78
2022/05/29 05:50:46;;;;;;;0.50;0.50;;;16.60;99.90;;;;;;5072898;28;20185;-77
2022/05/29 05:53:18;;;;;;;5.65;0.50;;;16.70;99.90;;;;;;5072547;28;20193;-78
2022/05/29 05:55:49;;;;;;;0.60;0.50;;;16.70;99.90;;;;;;5073324;28;20623;-77
2022/05/29 05:58:20;;;;;;;1.50;0.40;;;16.60;99.90;;;;;;5072500;28;20234;-77
2022/05/29 06:00:51;;;;;;;0.70;0.50;;;16.50;99.90;;;;;;5073014;28;20181;-77
2022/05/29 06:03:22;;;;;;;0.50;0.50;;;16.50;99.90;;;;;;5071437;28;20192;-77
2022/05/29 06:05:53;;;;;;;0.82;0.40;;;16.40;99.90;;;;;;5064276;28;20193;-77
2022/05/29 06:08:25;;;;;;;0.40;0.40;;;16.30;99.90;;;;;;5072783;28;20258;-77
2022/05/29 06:10:56;;;;;;;2.08;0.50;;;16.30;99.90;;;;;;5072752;28;20197;-78
2022/05/29 06:13:26;;;;;;;0.98;0.60;;;16.20;99.90;;;;;;5071943;28;20640;-77
2022/05/29 06:16:00;;;;;;;0.93;0.70;;;16.20;99.90;;;;;;5072526;28;20246;-77
2022/05/29 06:18:31;;;;;;;0.90;0.63;;;16.20;99.90;;;;;;5072024;28;20228;-77
2022/05/29 06:21:04;;;;;;;0.75;0.50;;;16.10;99.90;;;;;;5072275;28;20217;-75
2022/05/29 06:23:38;;;;;;;0.95;0.47;;;16.10;99.90;;;;;;5072526;28;20770;-77
2022/05/29 06:26:10;;;;;;;0.60;0.60;;;16.00;99.90;;;;;;5072631;28;20189;-77
2022/05/29 06:28:41;;;;;;;0.47;0.45;;;15.90;99.90;;;;;;5072478;28;20192;-76
2022/05/29 06:31:13;;;;;;;0.77;0.57;;;15.90;99.90;;;;;;5075559;28;20189;-76
2022/05/29 06:33:44;;;;;;;0.75;0.57;;;15.80;99.90;;;;;;5075887;28;20192;-77
2022/05/29 06:36:16;;;;;;;1.42;0.80;;;15.80;99.90;;;;;;5076788;28;20219;-77
2022/05/29 06:38:50;;;;;;;0.82;0.70;;;15.80;99.90;;;;;;5076111;28;20192;-76
2022/05/29 06:41:22;;;;;;;0.93;0.80;;;15.60;99.90;;;;;;5075810;28;20188;-77
2022/05/29 06:43:54;;;;;;;1.08;0.80;;;15.60;99.90;;;;;;5075313;28;20584;-77
2022/05/29 06:46:25;;;;;;;1.73;1.00;;;15.50;99.90;;;;;;5076317;28;20192;-77
2022/05/29 06:48:55;;;;;;;0.90;0.75;;;15.40;99.90;;;;;;5075751;28;20254;-77
2022/05/29 06:51:26;;;;;;;1.90;1.00;;;15.30;99.90;;;;;;5076082;28;20246;-77
2022/05/29 06:54:00;;;;;;;1.45;0.90;;;15.30;99.90;;;;;;5074376;28;20600;-77
2022/05/29 06:56:31;;;;;;;1.00;0.90;;;15.20;99.90;;;;;;5073077;28;20185;-77
2022/05/29 06:59:05;;;;;;;3.00;1.20;;;15.20;99.90;;;;;;5075130;28;20213;-77
2022/05/29 07:07:23;;;;;;;3.22;1.30;;;15.00;99.90;;;;;;5014008;28;20195;-77
2022/05/29 07:09:55;;;;;;;1.20;1.00;;;14.90;99.90;;;;;;5052971;28;20213;-77
2022/05/29 07:12:30;;;;;;;1.30;0.85;;;14.90;99.90;;;;;;5073619;28;20249;-77
2022/05/29 07:15:06;;;;;;;1.40;1.10;;;14.90;99.90;;;;;;5072364;28;20200;-77
2022/05/29 07:17:37;;;;;;;2.28;1.13;;;14.80;99.90;;;;;;5071355;28;20236;-78
2022/05/29 07:20:08;;;;;;;1.63;1.10;;;14.80;99.90;;;;;;5070350;28;20236;-77
2022/05/29 07:22:41;;;;;;;2.45;1.15;;;14.70;99.90;;;;;;5069394;28;20648;-78
2022/05/29 07:25:15;;;;;;;1.35;1.08;;;14.70;99.90;;;;;;5069028;28;20193;-77
2022/05/29 07:27:45;;;;;;;1.15;0.90;;;14.60;99.90;;;;;;5070633;28;20212;-78
2022/05/29 07:30:17;;;;;;;1.15;1.00;;;14.60;99.90;;;;;;5069754;28;20679;-77
2022/05/29 07:32:47;;;;;;;2.00;1.20;;;14.60;99.90;;;;;;5072355;28;20200;-78
2022/05/29 07:35:18;;;;;;;1.67;1.13;;;14.50;99.90;;;;;;5067682;28;20192;-78
2022/05/29 07:37:49;;;;;;;2.05;1.42;;;14.50;99.90;;;;;;5069716;28;20280;-78
2022/05/29 07:40:21;;;;;;;1.60;1.20;;;14.40;99.90;;;;;;5070701;28;20223;-78
2022/05/29 07:45:45;;;;;;;1.77;1.30;;;14.30;99.90;;;;;;5055131;28;20196;-78
2022/05/29 07:48:16;;;;;;;2.03;1.13;;;14.20;99.90;;;;;;5070977;28;20228;-77
2022/05/29 07:50:47;;;;;;;2.90;1.38;;;14.20;99.90;;;;;;5071860;28;20201;-78
2022/05/29 07:53:18;;;;;;;2.80;1.48;;;14.20;99.90;;;;;;5073096;28;20563;-76
2022/05/29 07:55:51;;;;;;;2.58;1.20;;;14.20;99.90;;;;;;5069744;28;20333;-76
2022/05/29 07:58:21;;;;;;;1.90;1.08;;;14.10;99.90;;;;;;5070631;28;20200;-76
2022/05/29 08:00:52;;;;;;;2.33;1.20;;;14.10;99.90;;;;;;5071298;28;20228;-76
2022/05/29 08:03:23;;;;;;;1.95;1.10;;;14.10;99.90;;;;;;5066935;28;20193;-76
2022/05/29 08:05:54;;;;;;;1.00;0.90;;;14.10;99.90;;;;;;5073761;28;20712;-76
2022/05/29 08:08:25;;;;;;;34.10;16.90;;;14.00;99.90;;;;;;5069435;28;20216;-76
2022/05/29 08:10:58;;;;;;;103.22;56.28;;;14.00;99.90;;;;;;5070634;28;20203;-76
2022/05/29 08:13:28;;;;;;;181.32;93.75;;;14.00;99.90;;;;;;5072151;28;20682;-76
2022/05/29 08:15:59;;;;;;;114.57;60.80;;;13.90;99.90;;;;;;5070410;28;20597;-76
2022/05/29 08:18:29;;;;;;;47.80;27.23;;;13.90;99.90;;;;;;5074725;28;20290;-77
2022/05/29 08:21:00;;;;;;;83.05;45.65;;;13.80;99.90;;;;;;5073253;28;20289;-77
2022/05/29 08:23:31;;;;;;;42.35;23.33;;;13.80;99.90;;;;;;5075046;28;20188;-77
2022/05/29 08:31:36;;;;;;;22.67;12.68;;;13.70;99.90;;;;;;5073553;28;20357;-76
2022/05/29 08:34:07;;;;;;;29.30;16.58;;;13.70;99.90;;;;;;5073892;28;20238;-76
2022/05/29 08:36:37;;;;;;;11.68;7.10;;;13.70;99.90;;;;;;5072050;28;20220;-76
2022/05/29 08:39:09;;;;;;;16.35;9.82;;;13.70;99.90;;;;;;5072629;28;20296;-76
2022/05/29 08:41:48;;;;;;;5.85;3.75;;;13.60;99.90;;;;;;5071050;28;20200;-76
2022/05/29 08:44:23;;;;;;;3.88;2.55;;;13.60;99.90;;;;;;5068753;28;20193;-76
2022/05/29 08:47:00;;;;;;;3.20;1.90;;;13.60;99.90;;;;;;5071198;28;20201;-76
2022/05/29 08:49:35;;;;;;;3.65;2.15;;;13.50;99.90;;;;;;5069165;28;20199;-76
2022/05/29 08:52:33;;;;;;;3.92;2.15;;;13.40;99.90;;;;;;5070624;28;20203;-76
2022/05/29 08:55:12;;;;;;;3.72;2.00;;;13.40;99.90;;;;;;5070356;28;20263;-76
2022/05/29 08:58:14;;;;;;;3.78;2.00;;;13.30;99.90;;;;;;5070130;28;20550;-76
2022/05/29 09:01:04;;;;;;;3.67;1.90;;;13.20;99.90;;;;;;5069417;28;20224;-76
2022/05/29 09:03:50;;;;;;;2.78;1.73;;;13.20;99.90;;;;;;5067724;28;20286;-76
2022/05/29 09:06:24;;;;;;;2.47;1.63;;;13.10;99.90;;;;;;5073225;28;20200;-77
2022/05/29 09:09:02;;;;;;;5.10;1.63;;;13.10;99.90;;;;;;5071290;28;20197;-76
2022/05/29 09:11:37;;;;;;;5.45;1.92;;;13.00;99.90;;;;;;5068924;28;20200;-76
2022/05/29 09:14:15;;;;;;;4.68;1.90;;;13.10;99.90;;;;;;5070061;28;20227;-76
2022/05/29 09:16:51;;;;;;;2.58;1.58;;;13.00;99.90;;;;;;5068411;28;20590;-76
2022/05/29 09:19:33;;;;;;;2.35;1.63;;;13.00;99.90;;;;;;5072071;28;20589;-76
2022/05/29 09:22:12;;;;;;;2.58;1.55;;;13.00;99.90;;;;;;5062120;28;20821;-76
2022/05/29 09:24:55;;;;;;;3.65;1.52;;;13.00;99.90;;;;;;5070012;28;20230;-76
2022/05/29 09:27:26;;;;;;;2.75;1.60;;;12.90;99.90;;;;;;5068902;28;20211;-76
2022/05/29 09:29:57;;;;;;;2.33;1.30;;;12.90;99.90;;;;;;5071262;28;20660;-77
2022/05/29 09:32:31;;;;;;;2.40;1.30;;;12.90;99.90;;;;;;5070851;28;20193;-76
2022/05/29 09:35:06;;;;;;;2.13;1.35;;;12.90;99.90;;;;;;5069997;28;20195;-76
2022/05/29 09:37:51;;;;;;;2.55;1.40;;;12.90;99.90;;;;;;5069745;28;20188;-76
2022/05/29 09:40:30;;;;;;;1.90;1.30;;;12.90;99.90;;;;;;5069737;28;20220;-76
2022/05/29 09:43:14;;;;;;;3.30;1.55;;;12.80;99.90;;;;;;5071858;28;20202;-76
2022/05/29 09:45:45;;;;;;;2.80;1.30;;;12.80;99.90;;;;;;5071112;28;20192;-76
2022/05/29 09:51:23;;;;;;;1.90;1.40;;;12.80;99.90;;;;;;5071194;28;20223;-77
2022/05/29 09:53:57;;;;;;;2.83;1.50;;;12.70;99.90;;;;;;5069204;28;20197;-76
2022/05/29 09:56:30;;;;;;;3.38;1.60;;;12.70;99.90;;;;;;5070002;28;20309;-76
2022/05/29 09:59:06;;;;;;;2.20;1.50;;;12.70;99.90;;;;;;5072570;28;20188;-76
2022/05/29 10:01:40;;;;;;;2.10;1.40;;;12.70;99.90;;;;;;5073618;28;20258;-76
2022/05/29 10:04:17;;;;;;;3.35;1.70;;;12.70;99.90;;;;;;5074053;28;20265;-76
2022/05/29 10:06:50;;;;;;;2.15;1.63;;;12.60;99.90;;;;;;5068642;28;20254;-76
2022/05/29 10:09:22;;;;;;;3.58;1.90;;;12.60;99.90;;;;;;5071940;28;20197;-76
2022/05/29 10:11:56;;;;;;;4.50;2.00;;;12.60;99.90;;;;;;5068571;28;20197;-76
2022/05/29 10:14:36;;;;;;;3.45;1.38;;;12.60;99.90;;;;;;5061386;28;20205;-76
2022/05/29 10:17:15;;;;;;;1.42;1.20;;;12.60;99.90;;;;;;5071277;28;20204;-76
2022/05/29 10:19:49;;;;;;;1.77;1.00;;;12.60;99.90;;;;;;5070894;28;20307;-76
2022/05/29 10:22:23;;;;;;;1.27;0.88;;;12.60;99.90;;;;;;5070989;28;20232;-76
2022/05/29 10:24:54;;;;;;;1.67;0.80;;;12.70;99.90;;;;;;5069806;28;20200;-76
2022/05/29 10:27:34;;;;;;;1.17;0.65;;;12.70;99.90;;;;;;5067414;28;20890;-76
2022/05/29 10:30:07;;;;;;;0.93;0.60;;;12.70;99.90;;;;;;5064859;28;20216;-76
2022/05/29 10:32:40;;;;;;;0.77;0.50;;;12.70;99.90;;;;;;5068048;28;20243;-76
2022/05/29 10:35:28;;;;;;;1.40;0.63;;;12.70;99.90;;;;;;5068003;28;20597;-76
2022/05/29 10:37:59;;;;;;;2.00;0.60;;;12.70;99.90;;;;;;5077167;28;20271;-76
2022/05/29 10:40:32;;;;;;;1.17;0.60;;;12.80;99.90;;;;;;5075414;28;20285;-76
2022/05/29 10:43:05;;;;;;;1.48;0.52;;;12.70;99.90;;;;;;5074682;28;20196;-76
2022/05/29 10:45:42;;;;;;;0.68;0.52;;;12.70;99.90;;;;;;5073627;28;20193;-77
2022/05/29 10:48:30;;;;;;;0.50;0.50;;;12.80;99.90;;;;;;5071614;28;20636;-76
2022/05/29 10:51:12;;;;;;;0.60;0.60;;;12.80;99.90;;;;;;5065995;28;20209;-76
2022/05/29 10:54:01;;;;;;;0.63;0.63;;;12.80;99.90;;;;;;5077464;28;20197;-76
2022/05/29 10:56:43;;;;;;;0.60;0.60;;;12.80;99.90;;;;;;5068718;28;20308;-76
2022/05/29 10:59:41;;;;;;;1.00;0.90;;;12.70;99.90;;;;;;5071486;28;20254;-76
2022/05/29 11:05:27;;;;;;;2.35;0.80;;;12.70;99.90;;;;;;5072331;28;20202;-77
2022/05/29 11:08:14;;;;;;;1.02;0.80;;;12.60;99.90;;;;;;5068412;28;20243;-76
2022/05/29 11:11:08;;;;;;;0.77;0.70;;;12.60;99.90;;;;;;5071955;28;20323;-76
2022/05/29 11:14:12;;;;;;;2.20;0.77;;;12.60;99.90;;;;;;5065792;28;20247;-76
2022/05/29 11:16:55;;;;;;;1.15;0.80;;;12.60;99.90;;;;;;5073349;28;20222;-77
2022/05/29 11:19:51;;;;;;;1.63;1.00;;;12.60;99.90;;;;;;5074564;28;20204;-76
2022/05/29 11:22:27;;;;;;;0.80;0.70;;;12.50;99.90;;;;;;5072494;28;20201;-76
2022/05/29 11:25:14;;;;;;;2.30;0.90;;;12.50;99.90;;;;;;5070861;28;20254;-76
2022/05/29 11:28:11;;;;;;;1.00;0.80;;;12.50;99.90;;;;;;5074576;28;20224;-76
2022/05/29 11:30:59;;;;;;;1.00;0.90;;;12.40;99.90;;;;;;5072508;28;20199;-76
2022/05/29 11:33:55;;;;;;;2.08;1.10;;;12.40;99.90;;;;;;5073395;28;20197;-76
2022/05/29 11:36:52;;;;;;;1.95;1.10;;;12.40;99.90;;;;;;5073149;28;20201;-76
2022/05/29 11:39:29;;;;;;;2.10;1.17;;;12.40;99.90;;;;;;5072448;28;20189;-76
2022/05/29 11:42:09;;;;;;;3.20;1.30;;;12.30;99.90;;;;;;5071844;28;20217;-76
2022/05/29 11:44:46;;;;;;;1.20;1.10;;;12.30;99.90;;;;;;5072426;28;20189;-76
2022/05/29 11:53:14;;;;;;;1.20;0.90;;;12.20;99.90;;;;;;5073146;28;20196;-76
2022/05/29 11:55:47;;;;;;;0.93;0.90;;;12.10;99.90;;;;;;5072447;28;20193;-76
2022/05/29 11:58:23;;;;;;;1.60;0.90;;;12.10;99.90;;;;;;5073532;28;20588;-76
2022/05/29 12:00:58;;;;;;;2.25;0.70;;;12.10;99.90;;;;;;5074150;28;20692;-76
2022/05/29 12:03:37;;;;;;;2.30;0.90;;;12.10;99.90;;;;;;5075502;28;20319;-75
2022/05/29 12:06:14;;;;;;;1.33;0.90;;;12.10;99.90;;;;;;5074767;28;20276;-76
2022/05/29 12:08:52;;;;;;;1.90;0.68;;;12.00;99.90;;;;;;5068704;28;20246;-76
2022/05/29 12:11:47;;;;;;;1.48;0.70;;;12.00;99.90;;;;;;5070285;28;20249;-76
2022/05/29 12:14:25;;;;;;;1.02;0.90;;;12.00;99.90;;;;;;5051974;28;20197;-76
2022/05/29 12:16:59;;;;;;;2.80;0.90;;;12.00;99.90;;;;;;5075205;28;20204;-76
2022/05/29 12:19:37;;;;;;;2.28;0.82;;;12.00;99.90;;;;;;5072182;28;20279;-76
2022/05/29 12:22:10;;;;;;;1.00;0.60;;;12.00;99.90;;;;;;5073605;28;20266;-76
2022/05/29 12:24:44;;;;;;;1.77;0.75;;;12.00;99.90;;;;;;5075231;28;20189;-76
2022/05/29 12:27:19;;;;;;;2.05;0.70;;;11.90;99.90;;;;;;5072077;28;20254;-76
2022/05/29 12:29:54;;;;;;;2.05;0.60;;;11.90;99.90;;;;;;5072218;28;20196;-76
2022/05/29 12:32:27;;;;;;;0.85;0.70;;;11.90;99.90;;;;;;5080579;28;20195;-76
2022/05/29 12:35:01;;;;;;;1.38;0.77;;;12.00;99.90;;;;;;5072859;28;20588;-76
2022/05/29 12:37:59;;;;;;;0.77;0.73;;;11.90;99.90;;;;;;5076636;28;20607;-76
2022/05/29 12:41:01;;;;;;;1.63;0.70;;;11.90;99.90;;;;;;5065027;28;20225;-76
2022/05/29 12:44:08;;;;;;;2.72;0.60;;;11.90;99.90;;;;;;5069460;28;20675;-76
2022/05/29 12:47:07;;;;;;;0.95;0.80;;;11.80;99.90;;;;;;5074119;28;20815;-76
2022/05/29 12:50:14;;;;;;;0.85;0.70;;;11.80;99.90;;;;;;5074531;28;20208;-76
2022/05/29 12:53:07;;;;;;;1.45;0.90;;;11.80;99.90;;;;;;5066097;28;20614;-75
2022/05/29 12:55:52;;;;;;;0.60;0.60;;;11.80;99.90;;;;;;5074949;28;20197;-76
2022/05/29 12:58:48;;;;;;;1.65;0.70;;;11.80;99.90;;;;;;5074115;28;20193;-76
2022/05/29 13:01:30;;;;;;;0.88;0.60;;;11.80;99.90;;;;;;5072573;28;20267;-75
2022/05/29 13:04:28;;;;;;;0.98;0.80;;;11.80;99.90;;;;;;5074486;28;20189;-76
2022/05/29 13:07:24;;;;;;;1.25;0.90;;;11.80;99.90;;;;;;5046132;28;20506;-76
2022/05/29 13:10:13;;;;;;;0.70;0.70;;;11.80;99.90;;;;;;5080739;28;20186;-76
2022/05/29 13:12:48;;;;;;;2.13;0.75;;;11.80;99.90;;;;;;5074335;28;20731;-75
2022/05/29 13:15:31;;;;;;;1.90;0.80;;;11.70;99.90;;;;;;5072697;28;20211;-76
2022/05/29 13:18:37;;;;;;;0.98;0.70;;;11.70;99.90;;;;;;5082355;28;20661;-76
2022/05/29 13:21:23;;;;;;;0.82;0.82;;;11.70;99.90;;;;;;5064976;28;20325;-76
2022/05/29 13:23:55;;;;;;;1.13;0.80;;;11.60;99.90;;;;;;5070237;28;20193;-76
2022/05/29 13:26:31;;;;;;;1.70;1.00;;;11.60;99.90;;;;;;5064908;28;20192;-76
2022/05/29 13:29:05;;;;;;;2.40;0.80;;;11.50;99.90;;;;;;5071089;28;20706;-76
2022/05/29 13:31:56;;;;;;;1.55;0.95;;;11.50;99.90;;;;;;5062354;28;20656;-76
2022/05/29 13:34:31;;;;;;;1.33;1.00;;;11.50;99.90;;;;;;5071115;28;20288;-76
2022/05/29 13:37:25;;;;;;;1.25;1.08;;;11.50;99.90;;;;;;5073153;28;20197;-76
2022/05/29 13:40:04;;;;;;;1.52;1.15;;;11.50;99.90;;;;;;5075869;28;20250;-76
2022/05/29 13:42:48;;;;;;;1.75;1.10;;;11.50;99.90;;;;;;5071467;28;20837;-76
2022/05/29 13:46:07;;;;;;;1.85;0.90;;;11.40;99.90;;;;;;5082955;28;20200;-76
2022/05/29 13:49:03;;;;;;;1.58;0.95;;;11.40;99.90;;;;;;5064000;28;20227;-76
2022/05/29 13:51:41;;;;;;;2.25;1.10;;;11.40;99.90;;;;;;5069780;28;20200;-76
2022/05/29 13:54:24;;;;;;;2.25;1.20;;;11.40;99.90;;;;;;5069533;28;20199;-76
2022/05/29 13:57:12;;;;;;;1.38;1.17;;;11.40;99.90;;;;;;5068046;28;20720;-76
2022/05/29 14:05:35;;;;;;;2.13;0.98;;;11.40;99.90;;;;;;5047184;28;20726;-76
2022/05/29 14:08:32;;;;;;;1.20;0.90;;;11.40;99.90;;;;;;5045873;28;20284;-76
2022/05/29 14:11:39;;;;;;;2.40;1.10;;;11.50;99.90;;;;;;5043117;28;20546;-75
2022/05/29 14:14:44;;;;;;;2.42;1.08;;;11.40;99.90;;;;;;5040631;28;20201;-76
2022/05/29 14:17:28;;;;;;;1.95;0.93;;;11.40;99.90;;;;;;5045042;28;20196;-76